sensor_id;sensor_type;location;lat;lon;timestamp;temperature;humidity
13211;DHT22;6670;51.53087800;7.23266500;2023-08-06T00:00:13;16.80;99.90
13211;DHT22;6670;51.53087800;7.23266500;2023-08-06T00:02:42;16.80;99.90
13211;DHT22;6670;51.53087800;7.23266500;2023-08-06T00:05:10;16.80;99.90
13211;DHT22;6670;51.53087800;7.23266500;2023-08-06T00:07:38;16.80;99.90
13211;DHT22;6670;51.53087800;7.23266500;2023-08-06T00:10:07;16.80;99.90
13211;DHT22;6670;51.53087800;7.23266500;2023-08-06T00:12:34;16.90;99.90
13211;DHT22;6670;51.53087800;7.23266500;2023-08-06T00:15:02;17.00;99.90
13211;DHT22;6670;51.53087800;7.23266500;2023-08-06T00:17:29;17.00;99.90
13211;DHT22;6670;51.53087800;7.23266500;2023-08-06T00:19:56;17.10;99.90
13211;DHT22;6670;51.53087800;7.23266500;2023-08-06T00:22:24;17.00;99.90
13211;DHT22;6670;51.53087800;7.23266500;2023-08-06T00:24:53;17.00;99.90
13211;DHT22;6670;51.53087800;7.23266500;2023-08-06T00:27:23;17.00;99.90
13211;DHT22;6670;51.53087800;7.23266500;2023-08-06T00:29:51;16.80;99.90
13211;DHT22;6670;51.53087800;7.23266500;2023-08-06T00:32:19;16.80;99.90
13211;DHT22;6670;51.53087800;7.23266500;2023-08-06T00:34:47;16.70;99.90
13211;DHT22;6670;51.53087800;7.23266500;2023-08-06T00:37:15;16.70;99.90
13211;DHT22;6670;51.53087800;7.23266500;2023-08-06T00:39:44;16.70;99.90
13211;DHT22;6670;51.53087800;7.23266500;2023-08-06T00:42:12;16.70;99.90
13211;DHT22;6670;51.53087800;7.23266500;2023-08-06T00:44:40;16.70;99.90
13211;DHT22;6670;51.53087800;7.23266500;2023-08-06T00:47:07;16.70;99.90
13211;DHT22;6670;51.53087800;7.23266500;2023-08-06T00:49:36;16.70;99.90
13211;DHT22;6670;51.53087800;7.23266500;2023-08-06T00:52:04;16.70;99.90
13211;DHT22;6670;51.53087800;7.23266500;2023-08-06T00:54:33;16.80;99.90
13211;DHT22;6670;51.53087800;7.23266500;2023-08-06T00:57:01;16.70;99.90
13211;DHT22;6670;51.53087800;7.23266500;2023-08-06T00:59:31;16.70;99.90
13211;DHT22;6670;51.53087800;7.23266500;2023-08-06T01:01:58;16.70;99.90
13211;DHT22;6670;51.53087800;7.23266500;2023-08-06T01:04:26;16.60;99.90
13211;DHT22;6670;51.53087800;7.23266500;2023-08-06T01:07:02;16.70;99.90
13211;DHT22;6670;51.53087800;7.23266500;2023-08-06T01:09:42;16.70;99.90
13211;DHT22;6670;51.53087800;7.23266500;2023-08-06T01:12:18;16.70;99.90
13211;DHT22;6670;51.53087800;7.23266500;2023-08-06T01:14:54;16.60;99.90
13211;DHT22;6670;51.53087800;7.23266500;2023-08-06T01:17:24;16.70;99.90
13211;DHT22;6670;51.53087800;7.23266500;2023-08-06T01:19:52;16.70;99.90
13211;DHT22;6670;51.53087800;7.23266500;2023-08-06T01:22:21;16.70;99.90
13211;DHT22;6670;51.53087800;7.23266500;2023-08-06T01:24:50;16.60;99.90
13211;DHT22;6670;51.53087800;7.23266500;2023-08-06T01:27:25;16.60;99.90
13211;DHT22;6670;51.53087800;7.23266500;2023-08-06T01:30:04;16.60;99.90
13211;DHT22;6670;51.53087800;7.23266500;2023-08-06T01:32:35;16.60;99.90
13211;DHT22;6670;51.53087800;7.23266500;2023-08-06T01:35:05;16.60;99.90
13211;DHT22;6670;51.53087800;7.23266500;2023-08-06T01:37:34;16.60;99.90
13211;DHT22;6670;51.53087800;7.23266500;2023-08-06T01:40:06;16.60;99.90
13211;DHT22;6670;51.53087800;7.23266500;2023-08-06T01:42:34;16.60;99.90
13211;DHT22;6670;51.53087800;7.23266500;2023-08-06T01:45:01;16.60;99.90
13211;DHT22;6670;51.53087800;7.23266500;2023-08-06T01:47:29;16.60;99.90
13211;DHT22;6670;51.53087800;7.23266500;2023-08-06T01:49:56;16.60;99.90
13211;DHT22;6670;51.53087800;7.23266500;2023-08-06T01:52:24;16.60;99.90
13211;DHT22;6670;51.53087800;7.23266500;2023-08-06T01:54:54;16.50;99.90
13211;DHT22;6670;51.53087800;7.23266500;2023-08-06T01:57:21;16.60;99.90
13211;DHT22;6670;51.53087800;7.23266500;2023-08-06T01:59:49;16.60;99.90
13211;DHT22;6670;51.53087800;7.23266500;2023-08-06T02:02:16;16.60;99.90
13211;DHT22;6670;51.53087800;7.23266500;2023-08-06T02:04:43;16.60;99.90
13211;DHT22;6670;51.53087800;7.23266500;2023-08-06T02:07:12;16.50;99.90
13211;DHT22;6670;51.53087800;7.23266500;2023-08-06T02:09:40;16.40;99.90
13211;DHT22;6670;51.53087800;7.23266500;2023-08-06T02:12:09;16.60;99.90
13211;DHT22;6670;51.53087800;7.23266500;2023-08-06T02:14:36;16.50;99.90
13211;DHT22;6670;51.53087800;7.23266500;2023-08-06T02:17:04;16.50;99.90
13211;DHT22;6670;51.53087800;7.23266500;2023-08-06T02:19:30;16.30;99.90
13211;DHT22;6670;51.53087800;7.23266500;2023-08-06T02:21:58;16.60;99.90
13211;DHT22;6670;51.53087800;7.23266500;2023-08-06T02:24:25;16.50;99.90
13211;DHT22;6670;51.53087800;7.23266500;2023-08-06T02:26:53;16.40;99.90
13211;DHT22;6670;51.53087800;7.23266500;2023-08-06T02:29:23;16.40;99.90
13211;DHT22;6670;51.53087800;7.23266500;2023-08-06T02:31:51;16.30;99.90
13211;DHT22;6670;51.53087800;7.23266500;2023-08-06T02:34:18;16.30;99.90
13211;DHT22;6670;51.53087800;7.23266500;2023-08-06T02:36:46;16.40;99.90
13211;DHT22;6670;51.53087800;7.23266500;2023-08-06T02:39:14;16.40;99.90
13211;DHT22;6670;51.53087800;7.23266500;2023-08-06T02:41:41;16.20;99.90
13211;DHT22;6670;51.53087800;7.23266500;2023-08-06T02:44:08;16.30;99.90
13211;DHT22;6670;51.53087800;7.23266500;2023-08-06T02:46:37;16.20;99.90
13211;DHT22;6670;51.53087800;7.23266500;2023-08-06T02:49:06;16.20;99.90
13211;DHT22;6670;51.53087800;7.23266500;2023-08-06T02:51:33;16.30;99.90
13211;DHT22;6670;51.53087800;7.23266500;2023-08-06T02:54:01;16.30;99.90
13211;DHT22;6670;51.53087800;7.23266500;2023-08-06T02:56:28;16.20;99.90
13211;DHT22;6670;51.53087800;7.23266500;2023-08-06T02:59:11;16.20;99.90
13211;DHT22;6670;51.53087800;7.23266500;2023-08-06T03:01:51;16.30;99.90
13211;DHT22;6670;51.53087800;7.23266500;2023-08-06T03:04:26;16.20;99.90
13211;DHT22;6670;51.53087800;7.23266500;2023-08-06T03:06:53;16.20;99.90
13211;DHT22;6670;51.53087800;7.23266500;2023-08-06T03:09:24;16.20;99.90
13211;DHT22;6670;51.53087800;7.23266500;2023-08-06T03:11:52;16.20;99.90
13211;DHT22;6670;51.53087800;7.23266500;2023-08-06T03:14:19;16.20;99.90
13211;DHT22;6670;51.53087800;7.23266500;2023-08-06T03:16:47;16.10;99.90
13211;DHT22;6670;51.53087800;7.23266500;2023-08-06T03:19:18;16.10;99.90
13211;DHT22;6670;51.53087800;7.23266500;2023-08-06T03:21:46;16.10;99.90
13211;DHT22;6670;51.53087800;7.23266500;2023-08-06T03:24:14;16.60;99.90
13211;DHT22;6670;51.53087800;7.23266500;2023-08-06T03:26:43;16.70;99.90
13211;DHT22;6670;51.53087800;7.23266500;2023-08-06T03:29:11;16.60;99.90
13211;DHT22;6670;51.53087800;7.23266500;2023-08-06T03:31:40;16.60;99.90
13211;DHT22;6670;51.53087800;7.23266500;2023-08-06T03:34:07;16.80;99.90
13211;DHT22;6670;51.53087800;7.23266500;2023-08-06T03:36:36;16.90;99.90
13211;DHT22;6670;51.53087800;7.23266500;2023-08-06T03:39:04;16.80;99.90
13211;DHT22;6670;51.53087800;7.23266500;2023-08-06T03:41:32;16.50;99.90
13211;DHT22;6670;51.53087800;7.23266500;2023-08-06T03:43:59;16.40;99.90
13211;DHT22;6670;51.53087800;7.23266500;2023-08-06T03:46:29;16.40;99.90
13211;DHT22;6670;51.53087800;7.23266500;2023-08-06T03:48:59;16.60;99.90
13211;DHT22;6670;51.53087800;7.23266500;2023-08-06T03:51:26;16.60;99.90
13211;DHT22;6670;51.53087800;7.23266500;2023-08-06T03:53:58;16.40;99.90
13211;DHT22;6670;51.53087800;7.23266500;2023-08-06T03:56:25;16.40;99.90
13211;DHT22;6670;51.53087800;7.23266500;2023-08-06T03:58:53;16.50;99.90
13211;DHT22;6670;51.53087800;7.23266500;2023-08-06T04:01:21;16.40;99.90
13211;DHT22;6670;51.53087800;7.23266500;2023-08-06T04:03:48;16.30;99.90
13211;DHT22;6670;51.53087800;7.23266500;2023-08-06T04:06:16;16.40;99.90
13211;DHT22;6670;51.53087800;7.23266500;2023-08-06T04:08:43;16.80;99.90
13211;DHT22;6670;51.53087800;7.23266500;2023-08-06T04:11:12;16.60;99.90
13211;DHT22;6670;51.53087800;7.23266500;2023-08-06T04:13:42;16.50;99.90
13211;DHT22;6670;51.53087800;7.23266500;2023-08-06T04:16:11;16.50;99.90
13211;DHT22;6670;51.53087800;7.23266500;2023-08-06T04:18:39;16.50;99.90
13211;DHT22;6670;51.53087800;7.23266500;2023-08-06T04:21:06;16.90;99.90
13211;DHT22;6670;51.53087800;7.23266500;2023-08-06T04:23:34;17.10;99.90
13211;DHT22;6670;51.53087800;7.23266500;2023-08-06T04:26:04;17.20;99.90
13211;DHT22;6670;51.53087800;7.23266500;2023-08-06T04:28:44;17.40;99.90
13211;DHT22;6670;51.53087800;7.23266500;2023-08-06T04:31:11;17.50;99.90
13211;DHT22;6670;51.53087800;7.23266500;2023-08-06T04:33:41;17.70;99.90
13211;DHT22;6670;51.53087800;7.23266500;2023-08-06T04:36:12;17.60;99.90
13211;DHT22;6670;51.53087800;7.23266500;2023-08-06T04:38:39;17.80;99.90
13211;DHT22;6670;51.53087800;7.23266500;2023-08-06T04:41:11;17.80;99.90
13211;DHT22;6670;51.53087800;7.23266500;2023-08-06T04:43:39;17.90;99.90
13211;DHT22;6670;51.53087800;7.23266500;2023-08-06T04:46:08;17.60;99.90
13211;DHT22;6670;51.53087800;7.23266500;2023-08-06T04:48:35;17.20;99.90
13211;DHT22;6670;51.53087800;7.23266500;2023-08-06T04:51:03;17.60;99.90
13211;DHT22;6670;51.53087800;7.23266500;2023-08-06T04:53:30;17.50;99.90
13211;DHT22;6670;51.53087800;7.23266500;2023-08-06T04:55:58;17.00;99.90
13211;DHT22;6670;51.53087800;7.23266500;2023-08-06T04:58:29;16.80;99.90
13211;DHT22;6670;51.53087800;7.23266500;2023-08-06T05:00:56;16.70;99.90
13211;DHT22;6670;51.53087800;7.23266500;2023-08-06T05:03:25;16.50;99.90
13211;DHT22;6670;51.53087800;7.23266500;2023-08-06T05:05:52;16.70;99.90
13211;DHT22;6670;51.53087800;7.23266500;2023-08-06T05:08:20;16.70;99.90
13211;DHT22;6670;51.53087800;7.23266500;2023-08-06T05:10:47;17.10;99.90
13211;DHT22;6670;51.53087800;7.23266500;2023-08-06T05:13:14;17.10;99.90
13211;DHT22;6670;51.53087800;7.23266500;2023-08-06T05:15:46;17.10;99.90
13211;DHT22;6670;51.53087800;7.23266500;2023-08-06T05:18:54;17.10;99.90
13211;DHT22;6670;51.53087800;7.23266500;2023-08-06T05:21:24;17.30;99.90
13211;DHT22;6670;51.53087800;7.23266500;2023-08-06T05:23:52;17.00;99.90
13211;DHT22;6670;51.53087800;7.23266500;2023-08-06T05:26:19;16.80;99.90
13211;DHT22;6670;51.53087800;7.23266500;2023-08-06T05:28:47;16.70;99.90
13211;DHT22;6670;51.53087800;7.23266500;2023-08-06T05:31:18;16.60;99.90
13211;DHT22;6670;51.53087800;7.23266500;2023-08-06T05:33:46;16.40;99.90
13211;DHT22;6670;51.53087800;7.23266500;2023-08-06T05:36:15;16.50;99.90
13211;DHT22;6670;51.53087800;7.23266500;2023-08-06T05:38:43;16.50;99.90
13211;DHT22;6670;51.53087800;7.23266500;2023-08-06T05:41:11;16.40;99.90
13211;DHT22;6670;51.53087800;7.23266500;2023-08-06T05:43:38;16.50;99.90
13211;DHT22;6670;51.53087800;7.23266500;2023-08-06T05:46:06;16.60;99.90
13211;DHT22;6670;51.53087800;7.23266500;2023-08-06T05:48:33;16.60;99.90
13211;DHT22;6670;51.53087800;7.23266500;2023-08-06T05:51:02;16.60;99.90
13211;DHT22;6670;51.53087800;7.23266500;2023-08-06T05:53:31;16.60;99.90
13211;DHT22;6670;51.53087800;7.23266500;2023-08-06T05:56:01;16.60;99.90
13211;DHT22;6670;51.53087800;7.23266500;2023-08-06T05:58:31;16.90;99.90
13211;DHT22;6670;51.53087800;7.23266500;2023-08-06T06:00:58;17.00;99.90
13211;DHT22;6670;51.53087800;7.23266500;2023-08-06T06:03:28;17.10;99.90
13211;DHT22;6670;51.53087800;7.23266500;2023-08-06T06:05:56;17.00;99.90
13211;DHT22;6670;51.53087800;7.23266500;2023-08-06T06:08:23;17.20;99.90
13211;DHT22;6670;51.53087800;7.23266500;2023-08-06T06:10:52;17.40;99.90
13211;DHT22;6670;51.53087800;7.23266500;2023-08-06T06:13:19;17.70;99.90
13211;DHT22;6670;51.53087800;7.23266500;2023-08-06T06:15:47;17.40;99.90
13211;DHT22;6670;51.53087800;7.23266500;2023-08-06T06:18:28;17.40;99.90
13211;DHT22;6670;51.53087800;7.23266500;2023-08-06T06:20:55;17.20;99.90
13211;DHT22;6670;51.53087800;7.23266500;2023-08-06T06:23:22;17.30;99.90
13211;DHT22;6670;51.53087800;7.23266500;2023-08-06T06:25:51;17.30;99.90
13211;DHT22;6670;51.53087800;7.23266500;2023-08-06T06:28:19;17.30;99.90
13211;DHT22;6670;51.53087800;7.23266500;2023-08-06T06:30:47;17.40;99.90
13211;DHT22;6670;51.53087800;7.23266500;2023-08-06T06:33:15;17.40;99.90
13211;DHT22;6670;51.53087800;7.23266500;2023-08-06T06:35:42;17.50;99.90
13211;DHT22;6670;51.53087800;7.23266500;2023-08-06T06:38:09;17.40;99.90
13211;DHT22;6670;51.53087800;7.23266500;2023-08-06T06:40:37;17.40;99.90
13211;DHT22;6670;51.53087800;7.23266500;2023-08-06T06:43:06;17.30;99.90
13211;DHT22;6670;51.53087800;7.23266500;2023-08-06T06:45:33;17.30;99.90
13211;DHT22;6670;51.53087800;7.23266500;2023-08-06T06:48:01;17.30;99.90
13211;DHT22;6670;51.53087800;7.23266500;2023-08-06T06:50:28;17.30;99.90
13211;DHT22;6670;51.53087800;7.23266500;2023-08-06T06:52:56;17.30;99.90
13211;DHT22;6670;51.53087800;7.23266500;2023-08-06T06:55:23;17.50;99.90
13211;DHT22;6670;51.53087800;7.23266500;2023-08-06T06:57:51;17.70;99.90
13211;DHT22;6670;51.53087800;7.23266500;2023-08-06T07:00:20;17.70;99.90
13211;DHT22;6670;51.53087800;7.23266500;2023-08-06T07:02:47;17.70;99.90
13211;DHT22;6670;51.53087800;7.23266500;2023-08-06T07:05:15;17.60;99.90
13211;DHT22;6670;51.53087800;7.23266500;2023-08-06T07:07:42;17.50;99.90
13211;DHT22;6670;51.53087800;7.23266500;2023-08-06T07:10:10;17.50;99.90
13211;DHT22;6670;51.53087800;7.23266500;2023-08-06T07:12:44;17.60;99.90
13211;DHT22;6670;51.53087800;7.23266500;2023-08-06T07:15:15;17.60;99.90
13211;DHT22;6670;51.53087800;7.23266500;2023-08-06T07:17:45;17.80;99.90
13211;DHT22;6670;51.53087800;7.23266500;2023-08-06T07:20:12;17.90;99.90
13211;DHT22;6670;51.53087800;7.23266500;2023-08-06T07:22:40;17.90;99.90
13211;DHT22;6670;51.53087800;7.23266500;2023-08-06T07:25:07;17.90;99.90
13211;DHT22;6670;51.53087800;7.23266500;2023-08-06T07:27:35;17.90;99.90
13211;DHT22;6670;51.53087800;7.23266500;2023-08-06T07:30:03;18.00;99.90
13211;DHT22;6670;51.53087800;7.23266500;2023-08-06T07:32:31;18.00;99.90
13211;DHT22;6670;51.53087800;7.23266500;2023-08-06T07:35:07;18.20;99.90
13211;DHT22;6670;51.53087800;7.23266500;2023-08-06T07:37:38;18.10;99.90
13211;DHT22;6670;51.53087800;7.23266500;2023-08-06T07:40:06;18.20;99.90
13211;DHT22;6670;51.53087800;7.23266500;2023-08-06T07:42:34;18.30;99.90
13211;DHT22;6670;51.53087800;7.23266500;2023-08-06T07:45:02;18.60;99.90
13211;DHT22;6670;51.53087800;7.23266500;2023-08-06T07:47:29;18.70;99.90
13211;DHT22;6670;51.53087800;7.23266500;2023-08-06T07:49:59;18.90;99.90
13211;DHT22;6670;51.53087800;7.23266500;2023-08-06T07:52:29;18.90;99.90
13211;DHT22;6670;51.53087800;7.23266500;2023-08-06T07:54:56;18.90;99.90
13211;DHT22;6670;51.53087800;7.23266500;2023-08-06T07:57:24;19.00;99.90
13211;DHT22;6670;51.53087800;7.23266500;2023-08-06T07:59:52;18.80;99.90
13211;DHT22;6670;51.53087800;7.23266500;2023-08-06T08:02:20;18.80;99.90
13211;DHT22;6670;51.53087800;7.23266500;2023-08-06T08:04:48;18.90;99.90
13211;DHT22;6670;51.53087800;7.23266500;2023-08-06T08:07:15;18.80;99.90
13211;DHT22;6670;51.53087800;7.23266500;2023-08-06T08:09:45;18.70;99.90
13211;DHT22;6670;51.53087800;7.23266500;2023-08-06T08:12:14;18.70;99.90
13211;DHT22;6670;51.53087800;7.23266500;2023-08-06T08:14:42;18.70;99.90
13211;DHT22;6670;51.53087800;7.23266500;2023-08-06T08:17:11;18.70;99.90
13211;DHT22;6670;51.53087800;7.23266500;2023-08-06T08:19:40;18.80;99.90
13211;DHT22;6670;51.53087800;7.23266500;2023-08-06T08:22:11;18.80;99.90
13211;DHT22;6670;51.53087800;7.23266500;2023-08-06T08:24:39;18.90;99.90
13211;DHT22;6670;51.53087800;7.23266500;2023-08-06T08:27:08;18.80;99.90
13211;DHT22;6670;51.53087800;7.23266500;2023-08-06T08:29:37;18.70;1.00
13211;DHT22;6670;51.53087800;7.23266500;2023-08-06T08:32:04;18.90;1.00
13211;DHT22;6670;51.53087800;7.23266500;2023-08-06T08:34:42;18.90;99.90
13211;DHT22;6670;51.53087800;7.23266500;2023-08-06T08:37:10;18.70;1.00
13211;DHT22;6670;51.53087800;7.23266500;2023-08-06T08:39:38;18.70;99.90
13211;DHT22;6670;51.53087800;7.23266500;2023-08-06T08:42:05;18.70;1.00
13211;DHT22;6670;51.53087800;7.23266500;2023-08-06T08:44:36;18.70;99.90
13211;DHT22;6670;51.53087800;7.23266500;2023-08-06T08:47:07;18.70;1.00
13211;DHT22;6670;51.53087800;7.23266500;2023-08-06T08:49:39;18.70;99.90
13211;DHT22;6670;51.53087800;7.23266500;2023-08-06T08:52:11;18.70;61.30
13211;DHT22;6670;51.53087800;7.23266500;2023-08-06T08:54:46;18.70;99.90
13211;DHT22;6670;51.53087800;7.23266500;2023-08-06T08:57:17;18.80;1.00
13211;DHT22;6670;51.53087800;7.23266500;2023-08-06T08:59:46;18.70;1.00
13211;DHT22;6670;51.53087800;7.23266500;2023-08-06T09:02:15;18.60;1.00
13211;DHT22;6670;51.53087800;7.23266500;2023-08-06T09:04:43;18.40;99.90
13211;DHT22;6670;51.53087800;7.23266500;2023-08-06T09:07:13;18.40;1.00
13211;DHT22;6670;51.53087800;7.23266500;2023-08-06T09:09:47;18.40;1.00
13211;DHT22;6670;51.53087800;7.23266500;2023-08-06T09:12:20;18.30;96.90
13211;DHT22;6670;51.53087800;7.23266500;2023-08-06T09:14:49;18.50;99.90
13211;DHT22;6670;51.53087800;7.23266500;2023-08-06T09:17:17;18.60;83.20
13211;DHT22;6670;51.53087800;7.23266500;2023-08-06T09:19:46;18.70;6.50
13211;DHT22;6670;51.53087800;7.23266500;2023-08-06T09:22:15;18.90;1.00
13211;DHT22;6670;51.53087800;7.23266500;2023-08-06T09:24:43;18.90;1.00
13211;DHT22;6670;51.53087800;7.23266500;2023-08-06T09:27:11;19.00;1.00
13211;DHT22;6670;51.53087800;7.23266500;2023-08-06T09:29:41;19.00;1.00
13211;DHT22;6670;51.53087800;7.23266500;2023-08-06T09:32:13;19.00;1.00
13211;DHT22;6670;51.53087800;7.23266500;2023-08-06T09:34:55;19.20;1.00
13211;DHT22;6670;51.53087800;7.23266500;2023-08-06T09:37:23;18.90;1.00
13211;DHT22;6670;51.53087800;7.23266500;2023-08-06T09:39:50;18.80;1.00
13211;DHT22;6670;51.53087800;7.23266500;2023-08-06T09:42:20;18.90;1.00
13211;DHT22;6670;51.53087800;7.23266500;2023-08-06T09:44:47;18.90;1.00
13211;DHT22;6670;51.53087800;7.23266500;2023-08-06T09:47:16;18.90;99.90
13211;DHT22;6670;51.53087800;7.23266500;2023-08-06T09:49:45;18.80;1.00
13211;DHT22;6670;51.53087800;7.23266500;2023-08-06T09:52:13;18.90;1.00
13211;DHT22;6670;51.53087800;7.23266500;2023-08-06T09:55:09;18.90;1.00
13211;DHT22;6670;51.53087800;7.23266500;2023-08-06T09:57:37;18.90;99.90
13211;DHT22;6670;51.53087800;7.23266500;2023-08-06T10:00:06;19.20;99.90
13211;DHT22;6670;51.53087800;7.23266500;2023-08-06T10:02:50;19.20;61.40
13211;DHT22;6670;51.53087800;7.23266500;2023-08-06T10:05:40;19.20;1.00
13211;DHT22;6670;51.53087800;7.23266500;2023-08-06T10:08:08;19.30;1.00
13211;DHT22;6670;51.53087800;7.23266500;2023-08-06T10:10:36;19.30;89.50
13211;DHT22;6670;51.53087800;7.23266500;2023-08-06T10:13:06;19.40;99.90
13211;DHT22;6670;51.53087800;7.23266500;2023-08-06T10:15:40;19.30;99.90
13211;DHT22;6670;51.53087800;7.23266500;2023-08-06T10:18:20;19.30;99.90
13211;DHT22;6670;51.53087800;7.23266500;2023-08-06T10:20:49;19.20;99.90
13211;DHT22;6670;51.53087800;7.23266500;2023-08-06T10:23:17;19.30;99.90
13211;DHT22;6670;51.53087800;7.23266500;2023-08-06T10:25:53;19.30;99.90
13211;DHT22;6670;51.53087800;7.23266500;2023-08-06T10:28:22;19.20;99.90
13211;DHT22;6670;51.53087800;7.23266500;2023-08-06T10:31:10;19.30;99.90
13211;DHT22;6670;51.53087800;7.23266500;2023-08-06T10:33:43;19.50;99.90
13211;DHT22;6670;51.53087800;7.23266500;2023-08-06T10:36:12;19.50;99.90
13211;DHT22;6670;51.53087800;7.23266500;2023-08-06T10:38:50;19.60;99.90
13211;DHT22;6670;51.53087800;7.23266500;2023-08-06T10:41:23;19.80;99.90
13211;DHT22;6670;51.53087800;7.23266500;2023-08-06T10:43:51;19.90;99.90
13211;DHT22;6670;51.53087800;7.23266500;2023-08-06T10:46:23;19.90;99.90
13211;DHT22;6670;51.53087800;7.23266500;2023-08-06T10:48:52;20.00;99.90
13211;DHT22;6670;51.53087800;7.23266500;2023-08-06T10:51:20;20.00;99.90
13211;DHT22;6670;51.53087800;7.23266500;2023-08-06T10:53:48;19.80;99.90
13211;DHT22;6670;51.53087800;7.23266500;2023-08-06T10:56:17;19.90;99.90
13211;DHT22;6670;51.53087800;7.23266500;2023-08-06T10:58:46;19.90;99.90
13211;DHT22;6670;51.53087800;7.23266500;2023-08-06T11:01:14;19.80;99.90
13211;DHT22;6670;51.53087800;7.23266500;2023-08-06T11:03:42;19.90;99.90
13211;DHT22;6670;51.53087800;7.23266500;2023-08-06T11:06:16;19.70;99.90
13211;DHT22;6670;51.53087800;7.23266500;2023-08-06T11:08:48;19.70;99.90
13211;DHT22;6670;51.53087800;7.23266500;2023-08-06T11:11:17;20.00;99.90
13211;DHT22;6670;51.53087800;7.23266500;2023-08-06T11:13:46;20.00;99.90
13211;DHT22;6670;51.53087800;7.23266500;2023-08-06T11:16:27;20.10;99.90
13211;DHT22;6670;51.53087800;7.23266500;2023-08-06T11:18:57;20.10;99.90
13211;DHT22;6670;51.53087800;7.23266500;2023-08-06T11:21:30;20.20;99.90
13211;DHT22;6670;51.53087800;7.23266500;2023-08-06T11:23:59;19.90;99.90
13211;DHT22;6670;51.53087800;7.23266500;2023-08-06T11:26:31;19.60;99.90
13211;DHT22;6670;51.53087800;7.23266500;2023-08-06T11:28:58;19.70;99.90
13211;DHT22;6670;51.53087800;7.23266500;2023-08-06T11:31:26;20.00;99.90
13211;DHT22;6670;51.53087800;7.23266500;2023-08-06T11:33:59;19.90;99.90
13211;DHT22;6670;51.53087800;7.23266500;2023-08-06T11:36:31;19.50;99.90
13211;DHT22;6670;51.53087800;7.23266500;2023-08-06T11:39:02;19.40;99.90
13211;DHT22;6670;51.53087800;7.23266500;2023-08-06T11:41:37;19.30;99.90
13211;DHT22;6670;51.53087800;7.23266500;2023-08-06T11:44:05;19.20;99.90
13211;DHT22;6670;51.53087800;7.23266500;2023-08-06T11:46:59;18.90;99.90
13211;DHT22;6670;51.53087800;7.23266500;2023-08-06T11:49:40;18.90;99.90
13211;DHT22;6670;51.53087800;7.23266500;2023-08-06T11:52:14;18.90;99.90
13211;DHT22;6670;51.53087800;7.23266500;2023-08-06T11:54:42;19.00;99.90
13211;DHT22;6670;51.53087800;7.23266500;2023-08-06T11:57:13;18.90;99.90
13211;DHT22;6670;51.53087800;7.23266500;2023-08-06T11:59:40;18.80;99.90
13211;DHT22;6670;51.53087800;7.23266500;2023-08-06T12:02:09;18.60;99.90
13211;DHT22;6670;51.53087800;7.23266500;2023-08-06T12:05:03;18.40;99.90
13211;DHT22;6670;51.53087800;7.23266500;2023-08-06T12:07:37;18.10;99.90
13211;DHT22;6670;51.53087800;7.23266500;2023-08-06T12:10:06;17.90;99.90
13211;DHT22;6670;51.53087800;7.23266500;2023-08-06T12:12:37;17.80;99.90
13211;DHT22;6670;51.53087800;7.23266500;2023-08-06T12:15:06;17.90;99.90
13211;DHT22;6670;51.53087800;7.23266500;2023-08-06T12:17:37;17.70;99.90
13211;DHT22;6670;51.53087800;7.23266500;2023-08-06T12:20:06;17.60;99.90
13211;DHT22;6670;51.53087800;7.23266500;2023-08-06T12:22:35;17.60;99.90
13211;DHT22;6670;51.53087800;7.23266500;2023-08-06T12:25:06;17.30;99.90
13211;DHT22;6670;51.53087800;7.23266500;2023-08-06T12:27:35;17.30;99.90
13211;DHT22;6670;51.53087800;7.23266500;2023-08-06T12:30:17;17.20;99.90
13211;DHT22;6670;51.53087800;7.23266500;2023-08-06T12:32:44;17.00;99.90
13211;DHT22;6670;51.53087800;7.23266500;2023-08-06T12:35:12;16.90;99.90
13211;DHT22;6670;51.53087800;7.23266500;2023-08-06T12:37:41;16.90;99.90
13211;DHT22;6670;51.53087800;7.23266500;2023-08-06T12:40:10;16.70;99.90
13211;DHT22;6670;51.53087800;7.23266500;2023-08-06T12:42:37;16.50;99.90
13211;DHT22;6670;51.53087800;7.23266500;2023-08-06T12:45:06;16.60;99.90
13211;DHT22;6670;51.53087800;7.23266500;2023-08-06T12:47:33;16.40;99.90
13211;DHT22;6670;51.53087800;7.23266500;2023-08-06T12:50:01;16.50;99.90
13211;DHT22;6670;51.53087800;7.23266500;2023-08-06T12:52:45;16.50;99.90
13211;DHT22;6670;51.53087800;7.23266500;2023-08-06T12:55:12;16.50;99.90
13211;DHT22;6670;51.53087800;7.23266500;2023-08-06T12:57:40;16.20;99.90
13211;DHT22;6670;51.53087800;7.23266500;2023-08-06T13:00:08;16.10;99.90
13211;DHT22;6670;51.53087800;7.23266500;2023-08-06T13:02:35;16.10;99.90
13211;DHT22;6670;51.53087800;7.23266500;2023-08-06T13:05:03;15.90;99.90
13211;DHT22;6670;51.53087800;7.23266500;2023-08-06T13:07:35;15.70;99.90
13211;DHT22;6670;51.53087800;7.23266500;2023-08-06T13:10:05;15.80;99.90
13211;DHT22;6670;51.53087800;7.23266500;2023-08-06T13:12:49;15.80;99.90
13211;DHT22;6670;51.53087800;7.23266500;2023-08-06T13:15:22;15.70;99.90
13211;DHT22;6670;51.53087800;7.23266500;2023-08-06T13:17:49;15.60;99.90
13211;DHT22;6670;51.53087800;7.23266500;2023-08-06T13:20:47;15.50;99.90
13211;DHT22;6670;51.53087800;7.23266500;2023-08-06T13:23:20;15.40;99.90
13211;DHT22;6670;51.53087800;7.23266500;2023-08-06T13:25:49;15.40;99.90
13211;DHT22;6670;51.53087800;7.23266500;2023-08-06T13:28:16;15.50;99.90
13211;DHT22;6670;51.53087800;7.23266500;2023-08-06T13:30:44;15.30;99.90
13211;DHT22;6670;51.53087800;7.23266500;2023-08-06T13:33:11;15.40;99.90
13211;DHT22;6670;51.53087800;7.23266500;2023-08-06T13:35:39;15.50;99.90
13211;DHT22;6670;51.53087800;7.23266500;2023-08-06T13:38:06;15.80;99.90
13211;DHT22;6670;51.53087800;7.23266500;2023-08-06T13:40:35;15.90;99.90
13211;DHT22;6670;51.53087800;7.23266500;2023-08-06T13:43:04;15.90;99.90
13211;DHT22;6670;51.53087800;7.23266500;2023-08-06T13:45:31;16.00;99.90
13211;DHT22;6670;51.53087800;7.23266500;2023-08-06T13:48:00;16.10;99.90